Time;durP1;ratioP1;P1;durP2;ratioP2;P2;SDS_P1;SDS_P2;PMS_P1;PMS_P2;Temp;Humidity;BMP_temperature;BMP_pressure;BME280_temperature;BME280_humidity;BME280_pressure;Samples;Min_cycle;Max_cycle;Signal;HPM_P1;HPM_P2
2021/07/15 00:01:45;;;;;;;;;12.00;11.25;;;;;19.07;63.00;100937.91;4972994;28;62818;-60
2021/07/15 00:04:13;;;;;;;;;11.75;11.75;;;;;19.05;62.98;100939.91;4972799;28;68338;-60
2021/07/15 00:06:39;;;;;;;;;10.00;9.50;;;;;19.05;62.95;100934.59;4972675;28;66995;-60
2021/07/15 00:09:04;;;;;;;;;12.25;9.00;;;;;19.04;62.67;100940.94;4976013;28;45343;-59
2021/07/15 00:11:33;;;;;;;;;12.75;10.00;;;;;19.02;63.08;100943.78;4976430;28;45296;-59
2021/07/15 00:13:58;;;;;;;;;14.75;12.75;;;;;19.01;63.03;100941.28;4976773;28;45445;-59
2021/07/15 00:16:24;;;;;;;;;17.50;16.00;;;;;18.98;63.45;100945.97;4975804;28;62348;-59
2021/07/15 00:18:49;;;;;;;;;14.50;13.50;;;;;18.95;63.15;100940.97;4976225;28;45271;-59
2021/07/15 00:21:16;;;;;;;;;13.75;11.25;;;;;18.93;63.22;100943.00;4975990;28;45354;-59
2021/07/15 00:23:42;;;;;;;;;12.00;11.75;;;;;18.92;63.33;100937.88;4976420;28;45406;-60
2021/07/15 00:26:07;;;;;;;;;16.00;11.00;;;;;18.90;63.29;100946.00;4975591;28;63365;-59
2021/07/15 00:28:39;;;;;;;;;13.75;11.00;;;;;18.90;63.31;100953.19;4976064;28;45390;-60
2021/07/15 00:31:05;;;;;;;;;13.75;11.00;;;;;18.89;63.53;100940.88;4975932;28;48354;-60
2021/07/15 00:33:30;;;;;;;;;10.50;9.75;;;;;18.89;63.41;100947.03;4976267;28;45296;-60
2021/07/15 00:35:57;;;;;;;;;12.00;10.00;;;;;18.87;63.18;100946.38;4976309;28;45394;-60
2021/07/15 00:38:22;;;;;;;;;14.75;9.25;;;;;18.87;63.54;100949.03;4976199;28;45319;-59
2021/07/15 00:40:48;;;;;;;;;12.25;9.50;;;;;18.87;63.67;100951.69;4975909;28;45327;-60
2021/07/15 00:43:13;;;;;;;;;10.75;9.75;;;;;18.87;63.51;100950.88;4975485;28;58744;-60
2021/07/15 00:45:39;;;;;;;;;9.50;9.50;;;;;18.86;63.60;100951.91;4976318;28;45244;-60
2021/07/15 00:48:04;;;;;;;;;12.75;11.00;;;;;18.87;63.63;100948.22;4973854;28;68673;-60
2021/07/15 00:50:30;;;;;;;;;13.25;10.00;;;;;18.87;63.33;100948.22;4976025;28;45383;-60
2021/07/15 00:52:56;;;;;;;;;11.75;8.75;;;;;18.86;63.56;100947.38;4976361;28;45445;-59
2021/07/15 00:55:24;;;;;;;;;10.50;9.75;;;;;18.87;63.83;100957.03;4975983;28;47073;-60
2021/07/15 00:57:50;;;;;;;;;13.00;10.25;;;;;18.88;63.66;100960.53;4975941;28;45346;-60
2021/07/15 01:00:16;;;;;;;;;13.75;10.00;;;;;18.89;63.88;100951.53;4957700;28;68637;-60
2021/07/15 01:02:41;;;;;;;;;9.25;9.00;;;;;18.89;63.57;100951.53;4975564;28;45229;-59
2021/07/15 01:05:10;;;;;;;;;9.75;9.25;;;;;18.91;63.68;100954.84;4975303;28;65050;-60
2021/07/15 01:07:35;;;;;;;;;12.75;12.00;;;;;18.91;63.38;100953.00;4974640;28;45208;-60
2021/07/15 01:10:01;;;;;;;;;16.50;15.75;;;;;18.91;63.63;100960.16;4975193;28;61124;-59
2021/07/15 01:12:35;;;;;;;;;16.25;13.75;;;;;18.92;63.44;100961.81;4975840;28;45421;-60
2021/07/15 01:15:16;;;;;;;;;16.00;15.25;;;;;18.91;63.78;100960.16;4975995;28;45558;-59
2021/07/15 01:17:51;;;;;;;;;16.25;14.75;;;;;18.92;63.56;100959.16;4958535;28;45601;-59
2021/07/15 01:20:28;;;;;;;;;15.75;14.75;;;;;18.92;63.40;100967.97;4973437;28;47441;-59
2021/07/15 01:23:12;;;;;;;;;13.50;11.00;;;;;18.92;63.49;100967.16;4974668;28;45321;-59
2021/07/15 01:26:04;;;;;;;;;13.00;12.25;;;;;18.91;63.43;100966.31;4975856;28;45306;-60
2021/07/15 01:28:54;;;;;;;;;14.50;11.00;;;;;18.92;63.45;100961.81;4974628;28;45529;-59
2021/07/15 01:31:19;;;;;;;;;15.75;10.00;;;;;18.91;63.25;100957.50;4975510;28;45765;-60
2021/07/15 01:33:45;;;;;;;;;10.25;9.50;;;;;18.91;63.43;100955.66;4973382;28;67681;-60
2021/07/15 01:36:12;;;;;;;;;12.50;9.00;;;;;18.91;63.38;100952.19;4958941;28;52393;-60
2021/07/15 01:38:49;;;;;;;;;9.50;9.50;;;;;18.90;63.86;100969.16;4974040;28;47078;-60
2021/07/15 01:41:15;;;;;;;;;10.00;9.00;;;;;18.90;63.65;100956.66;4974115;28;45952;-59
2021/07/15 01:43:42;;;;;;;;;10.50;8.50;;;;;18.88;63.75;100966.66;4975485;28;45320;-60
2021/07/15 01:46:08;;;;;;;;;11.00;10.00;;;;;18.90;63.44;100959.31;4974359;28;45261;-59
2021/07/15 01:48:33;;;;;;;;;11.75;9.00;;;;;18.88;63.53;100958.69;4957815;28;46051;-60
2021/07/15 01:50:59;;;;;;;;;13.00;10.00;;;;;18.87;63.70;100954.38;4975216;28;45244;-59
2021/07/15 01:53:24;;;;;;;;;12.00;11.00;;;;;18.85;63.74;100956.38;4975561;28;45250;-60
2021/07/15 01:55:50;;;;;;;;;17.00;11.50;;;;;18.84;63.77;100958.22;4975246;28;45505;-60
2021/07/15 01:58:15;;;;;;;;;13.00;11.75;;;;;18.82;64.22;100960.25;4956748;28;74405;-59
2021/07/15 02:00:40;;;;;;;;;15.25;12.25;;;;;18.81;63.55;100960.44;4973452;28;57214;-58
2021/07/15 02:03:06;;;;;;;;;12.25;10.00;;;;;18.79;63.90;100963.25;4956960;28;66258;-59
2021/07/15 02:05:32;;;;;;;;;9.00;7.75;;;;;18.76;63.92;100960.97;4975518;28;45560;-60
2021/07/15 02:07:57;;;;;;;;;12.00;10.00;;;;;18.75;63.96;100956.63;4973903;28;45518;-59
2021/07/15 02:10:24;;;;;;;;;9.50;9.00;;;;;18.74;64.13;100960.31;4972937;28;69083;-59
2021/07/15 02:12:50;;;;;;;;;11.25;11.00;;;;;18.74;64.21;100959.50;4975181;28;45264;-60
2021/07/15 02:15:15;;;;;;;;;11.25;9.25;;;;;18.72;64.55;100957.00;4974097;28;45471;-59
2021/07/15 02:17:41;;;;;;;;;8.50;8.50;;;;;18.69;64.32;100955.53;4957449;28;46014;-59
2021/07/15 02:20:09;;;;;;;;;10.75;8.50;;;;;18.67;64.35;100956.72;4973852;28;45701;-59
2021/07/15 02:22:35;;;;;;;;;10.00;9.25;;;;;18.65;64.67;100958.72;4975096;28;45161;-60
2021/07/15 02:25:00;;;;;;;;;11.00;9.25;;;;;18.62;64.62;100957.25;4957716;28;45183;-59
2021/07/15 02:27:25;;;;;;;;;11.50;10.75;;;;;18.58;64.99;100961.28;4973160;28;65609;-60
2021/07/15 02:29:51;;;;;;;;;11.75;10.00;;;;;18.57;64.44;100956.97;4972642;28;73206;-60
2021/07/15 02:32:16;;;;;;;;;9.00;8.00;;;;;18.54;64.80;100955.50;4972508;28;69318;-59
2021/07/15 02:35:01;;;;;;;;;9.25;8.50;;;;;18.49;64.75;100951.69;4956898;28;59518;-59
2021/07/15 02:37:34;;;;;;;;;12.50;11.50;;;;;18.50;64.88;100954.19;4973666;28;46051;-60
2021/07/15 02:40:00;;;;;;;;;12.25;9.25;;;;;18.46;65.18;100952.91;4957723;28;49143;-59
2021/07/15 02:42:25;;;;;;;;;14.00;11.75;;;;;18.43;65.02;100952.41;4974916;28;45287;-60
2021/07/15 02:44:51;;;;;;;;;10.50;8.50;;;;;18.41;65.01;100943.78;4974663;28;45232;-59
2021/07/15 02:47:16;;;;;;;;;8.50;8.25;;;;;18.36;65.06;100942.47;4974053;28;64894;-59
2021/07/15 02:49:42;;;;;;;;;10.50;8.75;;;;;18.35;65.24;100945.31;4973851;28;70621;-59
2021/07/15 02:52:08;;;;;;;;;10.25;10.25;;;;;18.32;65.60;100943.84;4974728;28;45413;-60
2021/07/15 02:54:34;;;;;;;;;11.50;9.50;;;;;18.30;65.65;100945.03;4973386;28;45524;-59
2021/07/15 02:57:44;;;;;;;;;10.00;8.75;;;;;18.27;65.43;100935.59;4973023;28;45438;-60
2021/07/15 03:00:11;;;;;;;;;10.50;9.75;;;;;18.26;65.49;100941.91;4973481;28;45356;-59
2021/07/15 03:02:48;;;;;;;;;12.25;12.00;;;;;18.25;65.59;100942.91;4974115;28;45531;-60
2021/07/15 03:05:20;;;;;;;;;13.00;10.25;;;;;18.23;65.87;100943.06;4973341;28;45535;-59
2021/07/15 03:07:51;;;;;;;;;10.25;10.25;;;;;18.23;65.57;100937.75;4974396;28;45312;-60
2021/07/15 03:10:17;;;;;;;;;11.00;11.00;;;;;18.22;65.73;100943.25;4974428;28;45478;-60
2021/07/15 03:12:42;;;;;;;;;11.75;11.75;;;;;18.21;65.73;100947.75;4974582;28;45597;-60
2021/07/15 03:15:08;;;;;;;;;10.00;8.25;;;;;18.18;65.94;100940.13;4973234;28;45459;-60
2021/07/15 03:17:35;;;;;;;;;10.50;9.00;;;;;18.17;66.18;100941.13;4973121;28;47202;-61
2021/07/15 03:20:04;;;;;;;;;11.25;10.50;;;;;18.16;65.93;100944.78;4956894;28;45723;-60
2021/07/15 03:22:30;;;;;;;;;9.50;9.50;;;;;18.15;65.58;100937.81;4974099;28;45370;-59
2021/07/15 03:25:00;;;;;;;;;10.75;9.75;;;;;18.13;65.86;100931.84;4940683;28;45431;-59
2021/07/15 03:27:26;;;;;;;;;12.00;11.75;;;;;18.13;65.79;100942.47;4974043;28;45743;-59
2021/07/15 03:29:51;;;;;;;;;11.50;11.50;;;;;18.11;65.87;100939.16;4972940;28;45446;-59
2021/07/15 03:32:17;;;;;;;;;11.75;11.25;;;;;18.10;66.16;100940.16;4956861;28;45438;-60
2021/07/15 03:34:42;;;;;;;;;8.75;6.75;;;;;18.08;66.24;100950.16;4956693;28;45355;-59
2021/07/15 03:37:07;;;;;;;;;18.25;12.75;;;;;18.09;66.22;100947.31;4955597;28;71627;-60
2021/07/15 03:39:33;;;;;;;;;10.25;8.75;;;;;18.07;66.07;100937.84;4972007;28;68307;-60
2021/07/15 03:41:58;;;;;;;;;12.75;10.25;;;;;18.07;66.16;100943.16;4972688;28;66019;-59
2021/07/15 03:44:24;;;;;;;;;12.25;10.75;;;;;18.05;66.33;100930.06;4979155;28;45385;-59
2021/07/15 03:46:50;;;;;;;;;10.00;9.00;;;;;18.04;66.32;100932.88;4979153;28;45321;-59
2021/07/15 03:49:16;;;;;;;;;9.75;9.75;;;;;18.01;66.63;100927.94;4980109;28;49351;-60
2021/07/15 03:51:42;;;;;;;;;11.50;9.50;;;;;18.03;66.46;100931.22;4963116;28;45327;-59
2021/07/15 03:54:07;;;;;;;;;11.25;10.25;;;;;18.00;66.53;100935.06;4962059;28;66864;-59
2021/07/15 03:56:32;;;;;;;;;10.00;9.00;;;;;17.98;66.90;100933.56;4978231;28;67968;-59
2021/07/15 03:59:01;;;;;;;;;12.75;11.25;;;;;17.98;66.91;100939.72;4962686;28;45281;-60
2021/07/15 04:01:30;;;;;;;;;14.25;11.75;;;;;17.99;66.89;100943.22;4963173;28;45429;-59
2021/07/15 04:03:55;;;;;;;;;11.50;10.50;;;;;17.98;66.87;100944.22;4980409;28;45309;-60
2021/07/15 04:06:21;;;;;;;;;11.25;11.25;;;;;17.97;66.85;100953.19;4962680;28;45364;-60
2021/07/15 04:08:47;;;;;;;;;11.00;11.00;;;;;17.95;66.81;100948.88;4978967;28;45793;-60
2021/07/15 04:11:14;;;;;;;;;12.75;9.50;;;;;17.95;66.71;100943.56;4963875;28;45354;-59
2021/07/15 04:13:40;;;;;;;;;11.25;11.25;;;;;17.97;66.61;100942.56;4962717;28;45309;-59
2021/07/15 04:16:11;;;;;;;;;12.25;10.00;;;;;17.97;66.87;100953.19;4962533;28;45512;-60
2021/07/15 04:18:38;;;;;;;;;9.00;9.00;;;;;17.97;66.86;100951.34;4979944;28;45862;-60
2021/07/15 04:21:03;;;;;;;;;12.00;10.50;;;;;17.98;66.90;100954.84;4978507;28;45392;-59
2021/07/15 04:23:30;;;;;;;;;9.75;9.75;;;;;17.98;66.87;100949.53;4977688;28;69433;-60
2021/07/15 04:25:55;;;;;;;;;11.00;10.25;;;;;18.00;66.64;100960.84;4979848;28;46069;-60
2021/07/15 04:28:23;;;;;;;;;13.00;10.75;;;;;18.00;66.93;100948.38;4962437;28;45380;-60
2021/07/15 04:30:49;;;;;;;;;14.00;9.75;;;;;18.00;67.14;100961.66;4977592;28;69400;-59
2021/07/15 04:33:14;;;;;;;;;13.75;10.75;;;;;18.00;66.72;100960.84;4979496;28;45513;-59
2021/07/15 04:35:40;;;;;;;;;10.25;10.25;;;;;18.01;66.96;100958.00;4978439;28;46589;-60
2021/07/15 04:38:05;;;;;;;;;10.50;10.00;;;;;18.01;67.04;100960.66;4979487;28;45492;-59
2021/07/15 04:40:31;;;;;;;;;14.50;10.50;;;;;18.02;66.90;100964.13;4962301;28;45609;-59
2021/07/15 04:42:58;;;;;;;;;13.00;13.00;;;;;18.02;66.82;100964.97;4979546;28;45397;-60
2021/07/15 04:45:26;;;;;;;;;11.75;10.00;;;;;18.03;66.71;100965.78;4978367;28;46096;-59
2021/07/15 04:47:53;;;;;;;;;11.50;11.50;;;;;18.03;66.93;100971.94;4979398;28;45325;-59
2021/07/15 04:50:19;;;;;;;;;12.50;11.25;;;;;18.03;66.87;100979.09;4978468;28;45470;-60
2021/07/15 04:52:53;;;;;;;;;11.25;9.25;;;;;18.04;66.70;100981.59;4979373;28;45537;-59
2021/07/15 04:55:20;;;;;;;;;11.75;10.50;;;;;18.04;66.99;100975.44;4958531;28;46410;-60
2021/07/15 04:57:45;;;;;;;;;10.50;10.50;;;;;18.05;66.79;100977.94;4976054;28;45398;-59
2021/07/15 05:00:11;;;;;;;;;10.75;9.00;;;;;18.05;66.96;100975.25;4958489;28;48573;-59
2021/07/15 05:02:40;;;;;;;;;11.75;10.50;;;;;18.06;66.68;100973.41;4975987;28;45496;-60
2021/07/15 05:05:06;;;;;;;;;12.00;12.00;;;;;18.07;66.90;100975.06;4975864;28;46497;-60
2021/07/15 05:07:34;;;;;;;;;10.00;9.50;;;;;18.08;66.79;100979.41;4975862;28;46058;-60
2021/07/15 05:09:59;;;;;;;;;13.00;10.50;;;;;18.08;66.64;100972.25;4976194;28;45413;-60
2021/07/15 05:12:24;;;;;;;;;12.75;9.75;;;;;18.10;66.31;100980.03;4974951;28;64277;-59
2021/07/15 05:14:52;;;;;;;;;12.50;9.75;;;;;18.11;66.45;100986.22;4974680;28;74398;-59
2021/07/15 05:17:18;;;;;;;;;10.25;10.00;;;;;18.11;66.40;100981.69;4974587;28;45352;-60
2021/07/15 05:19:43;;;;;;;;;14.25;12.00;;;;;18.12;66.31;100980.69;4975701;28;45238;-59
2021/07/15 05:22:08;;;;;;;;;11.25;8.00;;;;;18.13;66.56;100978.88;4974821;28;63350;-59
2021/07/15 05:24:34;;;;;;;;;10.00;10.00;;;;;18.11;66.22;100976.38;4975576;28;45343;-60
2021/07/15 05:27:00;;;;;;;;;11.00;9.75;;;;;18.12;66.33;100988.69;4975815;28;45359;-59
2021/07/15 05:29:25;;;;;;;;;10.50;9.75;;;;;18.11;66.58;100981.69;4975800;28;45221;-60
2021/07/15 05:31:51;;;;;;;;;11.00;9.50;;;;;18.11;66.45;100980.91;4974659;28;65236;-59
2021/07/15 05:34:19;;;;;;;;;8.50;8.00;;;;;18.13;66.55;100989.53;4974578;28;68878;-60
2021/07/15 05:36:44;;;;;;;;;10.75;9.75;;;;;18.13;66.47;100990.34;4975551;28;45343;-59
2021/07/15 05:39:10;;;;;;;;;12.25;12.00;;;;;18.13;66.92;100990.34;4975590;28;45301;-60
2021/07/15 05:41:35;;;;;;;;;11.25;11.25;;;;;18.13;66.47;100990.34;4975693;28;45541;-59
2021/07/15 05:44:01;;;;;;;;;12.50;11.50;;;;;18.14;66.52;100989.34;4974538;28;71250;-59
2021/07/15 05:46:26;;;;;;;;;10.50;8.25;;;;;18.15;66.55;100998.97;4974478;28;72313;-60
2021/07/15 05:48:51;;;;;;;;;12.25;10.75;;;;;18.16;66.64;101002.47;4974882;28;62568;-60
2021/07/15 05:51:17;;;;;;;;;12.75;9.25;;;;;18.19;66.77;101007.44;4975081;28;58843;-60
2021/07/15 05:53:42;;;;;;;;;11.75;10.00;;;;;18.19;66.79;101000.28;4975159;28;45342;-60
2021/07/15 05:56:08;;;;;;;;;11.50;10.75;;;;;18.22;66.49;100991.13;4975405;28;45366;-60
2021/07/15 05:58:33;;;;;;;;;14.25;9.50;;;;;18.24;66.26;100997.91;4975472;28;45345;-59
2021/07/15 06:00:58;;;;;;;;;11.50;10.25;;;;;18.28;66.52;100993.06;4975484;28;45395;-60
2021/07/15 06:03:24;;;;;;;;;10.00;9.00;;;;;18.31;66.22;100997.22;4974228;28;73005;-60
2021/07/15 06:05:49;;;;;;;;;12.50;10.00;;;;;18.33;66.15;101004.00;4973795;28;67695;-59
2021/07/15 06:08:15;;;;;;;;;11.50;11.25;;;;;18.36;66.15;101001.00;4975522;28;45425;-59
2021/07/15 06:10:40;;;;;;;;;12.50;12.50;;;;;18.36;65.86;101003.66;4974160;28;65492;-59
2021/07/15 06:13:06;;;;;;;;;11.75;10.00;;;;;18.38;65.73;101003.50;4976556;28;45346;-60
2021/07/15 06:15:31;;;;;;;;;12.00;10.75;;;;;18.38;65.73;101009.63;4974696;28;45270;-60
2021/07/15 06:17:57;;;;;;;;;6.75;5.00;;;;;18.39;65.87;101011.28;4975323;28;45430;-59
2021/07/15 06:20:22;;;;;;;;;11.25;9.00;;;;;18.39;65.72;101005.97;4974801;28;45334;-60
2021/07/15 06:22:47;;;;;;;;;11.50;7.50;;;;;18.41;65.69;101005.81;4974905;28;45684;-59
2021/07/15 06:25:13;;;;;;;;;9.00;9.00;;;;;18.42;65.68;101006.63;4974580;28;53536;-59
2021/07/15 06:27:39;;;;;;;;;10.00;9.00;;;;;18.46;65.32;101007.94;4973946;28;67978;-60
2021/07/15 06:30:08;;;;;;;;;10.50;8.00;;;;;18.41;65.11;101003.16;4975099;28;45248;-60
2021/07/15 06:32:33;;;;;;;;;10.50;9.00;;;;;18.50;65.47;101012.75;4974660;28;46288;-60
2021/07/15 06:34:59;;;;;;;;;9.50;7.50;;;;;18.56;65.28;101013.00;4973856;28;73162;-60
2021/07/15 06:37:34;;;;;;;;;9.00;8.00;;;;;18.62;65.29;101017.63;4974269;28;62986;-59
2021/07/15 06:40:00;;;;;;;;;9.75;8.50;;;;;18.68;64.97;101019.56;4973841;28;45348;-59
2021/07/15 06:42:26;;;;;;;;;9.25;8.25;;;;;18.74;64.68;101021.53;4974702;28;45255;-60
2021/07/15 06:44:52;;;;;;;;;9.00;9.00;;;;;18.79;64.18;101026.34;4973816;28;72026;-60
2021/07/15 06:47:17;;;;;;;;;12.75;10.00;;;;;18.83;64.16;101025.78;4974997;28;45309;-60
2021/07/15 06:49:42;;;;;;;;;12.25;12.25;;;;;18.86;63.81;101027.25;4974850;28;45311;-59
2021/07/15 06:52:08;;;;;;;;;8.50;8.25;;;;;18.90;64.23;101017.09;4973891;28;66422;-60
2021/07/15 06:54:34;;;;;;;;;9.00;9.00;;;;;18.93;63.41;101020.22;4974603;28;48051;-60
2021/07/15 06:56:59;;;;;;;;;10.00;10.00;;;;;18.95;63.32;101022.72;4973628;28;45911;-60
2021/07/15 06:59:24;;;;;;;;;11.00;8.00;;;;;18.96;63.34;101017.22;4973479;28;66556;-59
2021/07/15 07:01:50;;;;;;;;;9.00;7.50;;;;;19.00;63.07;101027.50;4975938;28;45992;-60
2021/07/15 07:04:15;;;;;;;;;8.25;8.00;;;;;19.01;62.90;101016.69;4973486;28;63910;-59
2021/07/15 07:06:41;;;;;;;;;7.50;7.50;;;;;19.02;62.81;101013.03;4974473;28;45678;-59
2021/07/15 07:09:06;;;;;;;;;8.00;8.00;;;;;19.05;62.77;101010.00;4974448;28;45478;-60
2021/07/15 07:11:31;;;;;;;;;11.25;9.25;;;;;19.08;62.71;101014.13;4973307;28;68011;-60
2021/07/15 07:13:57;;;;;;;;;9.50;8.00;;;;;19.09;62.81;101016.59;4974175;28;45400;-60
2021/07/15 07:16:22;;;;;;;;;9.00;8.25;;;;;19.12;62.23;101018.91;4973558;28;60488;-60
2021/07/15 07:18:47;;;;;;;;;9.00;9.00;;;;;19.16;62.52;101010.56;4973695;28;45495;-59
2021/07/15 07:21:13;;;;;;;;;9.00;8.25;;;;;19.20;62.37;101007.34;4973173;28;70804;-60
2021/07/15 07:23:38;;;;;;;;;10.50;9.00;;;;;19.24;62.45;101002.47;4973419;28;69573;-59
2021/07/15 07:26:03;;;;;;;;;9.00;8.00;;;;;19.29;62.35;101000.09;4973631;28;65248;-60
2021/07/15 07:28:29;;;;;;;;;9.50;8.00;;;;;19.35;61.93;101001.19;4973400;28;70338;-60
2021/07/15 07:30:55;;;;;;;;;10.25;8.75;;;;;19.41;61.71;101006.63;4974142;28;45862;-60
2021/07/15 07:33:20;;;;;;;;;9.00;8.00;;;;;19.50;61.61;101018.03;4974147;28;45259;-60
2021/07/15 07:35:45;;;;;;;;;7.75;7.75;;;;;19.55;61.00;101014.84;5006783;28;68276;-60
2021/07/15 07:38:11;;;;;;;;;8.00;8.00;;;;;19.57;60.75;101018.13;5022502;28;66200;-59
2021/07/15 07:40:37;;;;;;;;;8.75;8.75;;;;;19.62;60.67;101015.72;5036727;27;73961;-59
2021/07/15 07:43:02;;;;;;;;;5.00;5.00;;;;;19.66;60.90;101013.53;5050689;28;45315;-59
2021/07/15 07:45:27;;;;;;;;;11.75;9.75;;;;;19.72;60.90;101007.47;5025439;28;61655;-59
2021/07/15 07:47:53;;;;;;;;;9.50;7.00;;;;;19.82;60.68;101005.34;4990817;28;45368;-59
2021/07/15 07:50:18;;;;;;;;;10.75;9.00;;;;;19.95;60.06;100999.38;5039971;28;69516;-60
2021/07/15 07:52:44;;;;;;;;;9.00;8.00;;;;;20.09;60.28;101005.69;5016433;27;45375;-59
2021/07/15 07:55:10;;;;;;;;;10.25;8.25;;;;;20.21;59.03;101008.69;5029841;27;45777;-60
2021/07/15 07:57:35;;;;;;;;;11.00;11.00;;;;;20.33;59.32;101016.19;5053828;27;45487;-60
2021/07/15 08:00:01;;;;;;;;;10.00;8.00;;;;;;;;4986777;28;66372;-60
2021/07/15 08:02:27;;;;;;;;;10.00;10.00;;;;;20.51;58.63;101016.59;4974479;28;45526;-60
2021/07/15 08:04:52;;;;;;;;;9.00;8.75;;;;;20.61;58.71;101013.59;4998098;28;45697;-60
2021/07/15 08:07:17;;;;;;;;;11.75;11.00;;;;;20.72;57.78;101020.25;4981191;28;45494;-60
2021/07/15 08:09:45;;;;;;;;;9.75;7.25;;;;;20.83;57.56;101009.09;4985782;28;56045;-60
2021/07/15 08:12:12;;;;;;;;;9.00;9.00;;;;;20.95;57.54;101005.91;4996838;28;45432;-60
2021/07/15 08:14:38;;;;;;;;;9.75;8.75;;;;;21.05;57.53;101019.75;4996936;27;45431;-60
2021/07/15 08:17:03;;;;;;;;;9.25;8.00;;;;;21.18;57.13;101017.19;4990740;27;66398;-59
2021/07/15 08:19:28;;;;;;;;;8.75;8.75;;;;;21.31;57.10;101020.97;4988459;28;46323;-60
2021/07/15 08:21:55;;;;;;;;;10.00;9.00;;;;;21.41;56.08;101007.25;5004983;28;67188;-60
2021/07/15 08:24:21;;;;;;;;;12.25;9.25;;;;;21.47;55.71;101020.66;4980470;28;45373;-60
2021/07/15 08:26:46;;;;;;;;;9.25;9.25;;;;;21.57;56.12;101020.28;4989771;28;45244;-60
2021/07/15 08:29:12;;;;;;;;;10.00;10.00;;;;;21.67;55.59;101022.66;4989159;27;45830;-61
2021/07/15 08:31:37;;;;;;;;;8.00;8.00;;;;;21.74;55.11;101022.69;4979524;27;45711;-60
2021/07/15 08:34:03;;;;;;;;;8.75;8.00;;;;;21.75;54.91;101014.44;4977049;28;45470;-60
2021/07/15 08:36:31;;;;;;;;;8.00;7.75;;;;;21.81;55.22;101012.00;4986005;28;60115;-60
2021/07/15 08:38:56;;;;;;;;;8.50;8.50;;;;;21.87;55.56;101006.69;4988342;28;46225;-60
2021/07/15 08:41:22;;;;;;;;;8.50;8.50;;;;;21.94;55.53;101006.72;5013298;28;45450;-60
2021/07/15 08:43:47;;;;;;;;;9.00;8.50;;;;;22.03;54.20;101010.88;4996293;27;45701;-60
2021/07/15 08:46:14;;;;;;;;;11.00;10.00;;;;;22.09;54.46;101010.06;5007301;28;64375;-60
2021/07/15 08:48:39;;;;;;;;;9.00;8.00;;;;;22.11;54.28;101006.38;4988638;27;45322;-60
2021/07/15 08:51:04;;;;;;;;;11.50;10.00;;;;;22.12;53.53;101005.34;4997914;27;68632;-59
2021/07/15 08:53:31;;;;;;;;;10.00;9.00;;;;;22.13;53.99;101012.34;5025738;28;45695;-60
2021/07/15 08:58:41;;;;;;;;;10.00;8.00;;;;;22.20;54.07;101013.19;5009494;28;45697;-60
2021/07/15 09:01:07;;;;;;;;;11.50;10.00;;;;;22.27;53.93;101014.00;5065369;28;50235;-60
2021/07/15 09:03:34;;;;;;;;;8.00;8.00;;;;;22.39;53.73;101020.41;5039294;28;45335;-60
2021/07/15 09:05:59;;;;;;;;;10.50;8.00;;;;;22.54;53.50;101022.13;4998363;28;45637;-60
2021/07/15 09:08:25;;;;;;;;;8.75;7.50;;;;;22.67;53.58;101021.31;5011595;28;73358;-60
2021/07/15 09:10:50;;;;;;;;;9.00;8.50;;;;;22.80;53.07;101023.16;4974608;28;50444;-60
2021/07/15 09:13:16;;;;;;;;;9.00;9.00;;;;;22.88;51.57;101022.16;4977399;28;67218;-60
2021/07/15 09:15:46;;;;;;;;;8.50;8.50;;;;;22.90;51.93;101018.22;4996748;28;48494;-60
2021/07/15 09:18:12;;;;;;;;;5.25;5.00;;;;;22.92;51.60;101012.69;4980636;28;45370;-60
2021/07/15 09:20:37;;;;;;;;;10.00;9.00;;;;;22.98;51.86;101007.31;4982515;28;45292;-59
2021/07/15 09:23:04;;;;;;;;;10.00;9.00;;;;;23.14;51.87;101021.31;4984074;28;60926;-59
2021/07/15 09:25:39;;;;;;;;;8.50;8.25;;;;;23.23;51.15;101011.22;4984944;28;46686;-60
2021/07/15 09:28:08;;;;;;;;;9.50;8.25;;;;;23.31;51.18;101019.06;4987565;28;45606;-60
2021/07/15 09:30:34;;;;;;;;;7.75;7.25;;;;;23.34;51.15;101023.16;4975180;28;49679;-60
2021/07/15 09:33:01;;;;;;;;;9.00;8.75;;;;;23.39;51.36;101024.19;4986880;28;46428;-60
2021/07/15 09:35:37;;;;;;;;;8.50;7.75;;;;;23.46;51.12;101034.91;4987071;28;45385;-60
2021/07/15 09:38:16;;;;;;;;;8.50;8.50;;;;;23.50;51.01;101029.94;4990310;28;47593;-60
2021/07/15 09:40:51;;;;;;;;;9.25;9.00;;;;;23.59;51.17;101022.50;4986578;27;45950;-60
2021/07/15 09:43:21;;;;;;;;;9.00;8.50;;;;;23.64;50.37;101022.69;4993392;28;45402;-60
2021/07/15 09:45:48;;;;;;;;;9.75;9.75;;;;;23.69;50.52;101022.88;4996148;28;45268;-60
2021/07/15 09:48:14;;;;;;;;;22.00;19.00;;;;;23.72;50.00;101033.19;4992700;28;46097;-60
2021/07/15 09:50:39;;;;;;;;;8.00;7.50;;;;;23.77;49.93;101041.44;4975249;27;46474;-60
2021/07/15 09:53:14;;;;;;;;;8.75;8.75;;;;;23.77;49.64;101041.44;5000100;27;69272;-59
2021/07/15 09:55:40;;;;;;;;;9.00;9.00;;;;;23.79;49.22;101042.03;5009848;27;45465;-59
2021/07/15 09:58:09;;;;;;;;;7.75;7.25;;;;;23.80;49.91;101041.00;5018106;28;47961;-60
2021/07/15 10:00:43;;;;;;;;;9.75;8.75;;;;;23.91;49.92;101041.34;5010112;27;45942;-59
2021/07/15 10:03:10;;;;;;;;;8.25;8.00;;;;;23.97;49.37;101032.44;4990986;28;45496;-60
2021/07/15 10:05:36;;;;;;;;;8.75;8.75;;;;;23.98;49.26;101036.78;5019585;28;45482;-60
2021/07/15 10:08:09;;;;;;;;;8.75;8.75;;;;;23.93;49.45;101045.50;5011770;28;45410;-60
2021/07/15 10:10:35;;;;;;;;;7.00;7.00;;;;;23.91;49.42;101050.25;5015303;28;45555;-60
2021/07/15 10:13:22;;;;;;;;;8.50;7.50;;;;;23.83;49.68;101048.63;5006852;28;45520;-60
2021/07/15 10:15:48;;;;;;;;;8.75;8.75;;;;;23.78;49.89;101039.56;4988031;28;45474;-60
2021/07/15 10:18:14;;;;;;;;;9.50;7.25;;;;;23.74;49.65;101041.84;5005212;27;46318;-60
2021/07/15 10:21:06;;;;;;;;;9.25;8.50;;;;;23.68;49.47;101048.88;4986659;28;45488;-60
2021/07/15 10:23:49;;;;;;;;;7.25;6.75;;;;;23.66;49.72;101048.25;4992806;27;45415;-59
2021/07/15 10:26:15;;;;;;;;;9.25;8.00;;;;;23.70;50.22;101054.03;4978209;28;47286;-59
2021/07/15 10:28:45;;;;;;;;;10.50;10.50;;;;;23.76;49.85;101049.66;4979979;28;46175;-60
2021/07/15 10:31:11;;;;;;;;;9.25;8.25;;;;;23.79;49.10;101054.63;4980093;28;45746;-60
2021/07/15 10:33:36;;;;;;;;;9.50;8.25;;;;;23.82;48.73;101052.34;4985696;28;45297;-60
2021/07/15 10:36:04;;;;;;;;;10.50;8.75;;;;;23.91;49.05;101058.28;4998931;28;45541;-60
2021/07/15 10:38:35;;;;;;;;;10.75;9.25;;;;;24.02;49.55;101053.34;4998744;27;46431;-60
2021/07/15 10:41:00;;;;;;;;;9.50;8.50;;;;;24.16;49.40;101054.91;4997609;28;45499;-60
2021/07/15 10:43:26;;;;;;;;;10.00;9.25;;;;;24.25;48.81;101055.50;4993052;28;62306;-60
2021/07/15 10:45:57;;;;;;;;;10.25;8.75;;;;;24.37;49.00;101055.63;5010016;28;46243;-60
2021/07/15 10:48:24;;;;;;;;;9.75;9.75;;;;;24.55;48.92;101052.22;5028032;28;46057;-60
2021/07/15 10:50:49;;;;;;;;;6.00;6.00;;;;;24.74;48.81;101064.72;5039197;28;45508;-60
2021/07/15 10:53:15;;;;;;;;;8.25;8.00;;;;;24.92;48.32;101052.38;5047754;28;66704;-60
2021/07/15 10:55:40;;;;;;;;;8.00;8.00;;;;;25.05;47.65;101051.44;5035699;28;45589;-60
2021/07/15 10:58:05;;;;;;;;;9.75;9.75;;;;;25.15;46.83;101045.56;5025272;28;47817;-60
2021/07/15 11:00:31;;;;;;;;;10.00;10.00;;;;;25.18;47.03;101050.50;5040065;28;62059;-60
2021/07/15 11:03:10;;;;;;;;;10.50;8.50;;;;;25.24;47.20;101057.69;5060964;27;46202;-59
2021/07/15 11:05:46;;;;;;;;;8.75;8.00;;;;;25.31;46.53;101053.06;5067318;27;45408;-60
2021/07/15 11:08:11;;;;;;;;;8.75;7.50;;;;;25.37;46.50;101045.97;5051517;27;46301;-60
2021/07/15 11:10:36;;;;;;;;;8.75;8.75;;;;;25.48;46.02;101049.81;4993070;28;72149;-60
2021/07/15 11:13:04;;;;;;;;;9.00;8.75;;;;;25.59;46.34;101056.34;5070715;28;66893;-60
2021/07/15 11:16:07;;;;;;;;;8.50;8.00;;;;;25.73;46.51;101048.94;4963999;28;45252;-60
2021/07/15 11:18:45;;;;;;;;;8.00;8.00;;;;;25.87;45.10;101041.50;5011944;28;46986;-60
2021/07/15 11:21:25;;;;;;;;;10.25;8.50;;;;;26.03;45.46;101046.28;4985030;28;45859;-60